Time,TemperatureF,DewpointF,PressureIn,WindDirection,WindDirectionDegrees,WindSpeedMPH,WindSpeedGustMPH,Humidity,HourlyPrecipIn,Conditions,Clouds,dailyrainin,SoftwareType,DateUTC
2013-09-07 00:03:00,74.5,60.6,29.91,East,90,0.0,1.1,62,0.00,,---,0.00,VWS V13.01,2013-09-06 21:03:00,
2013-09-07 00:08:00,74.5,60.6,29.91,NNE,22,0.0,1.1,62,0.00,,---,0.00,VWS V13.01,2013-09-06 21:08:00,
2013-09-07 00:13:00,74.5,60.6,29.91,NE,45,0.0,1.1,62,0.00,,---,0.00,VWS V13.01,2013-09-06 21:13:00,
2013-09-07 00:18:00,74.3,60.5,29.91,North,0,0.0,1.1,62,0.00,,---,0.00,VWS V13.01,2013-09-06 21:18:00,
2013-09-07 00:23:00,74.3,60.5,29.91,North,0,0.0,1.1,62,0.00,,---,0.00,VWS V13.01,2013-09-06 21:23:00,
2013-09-07 00:28:00,74.3,60.5,29.91,NNW,337,0.0,1.1,62,0.00,,---,0.00,VWS V13.01,2013-09-06 21:28:00,
2013-09-07 00:33:00,74.1,60.3,29.91,NNW,337,0.0,0.9,62,0.00,,---,0.00,VWS V13.01,2013-09-06 21:33:00,
2013-09-07 00:38:00,74.1,60.3,29.91,NW,315,0.0,1.1,62,0.00,,---,0.00,VWS V13.01,2013-09-06 21:38:00,
2013-09-07 00:43:00,73.9,60.5,29.91,North,0,0.0,1.1,63,0.00,,---,0.00,VWS V13.01,2013-09-06 21:43:00,
2013-09-07 00:48:00,73.9,60.5,29.91,NW,315,0.0,2.0,63,0.00,,---,0.00,VWS V13.01,2013-09-06 21:48:00,
2013-09-07 00:53:00,73.8,60.4,29.91,NW,315,1.3,1.3,63,0.00,,---,0.00,VWS V13.01,2013-09-06 21:53:00,
2013-09-07 00:58:00,73.8,60.4,29.91,North,0,0.0,2.2,63,0.00,,---,0.00,VWS V13.01,2013-09-06 21:58:00,
2013-09-07 01:03:00,73.6,60.2,29.91,ENE,67,0.0,2.2,63,0.00,,---,0.00,VWS V13.01,2013-09-06 22:03:00,
2013-09-07 01:08:00,73.4,60.0,29.91,North,0,0.0,1.3,63,0.00,,---,0.00,VWS V13.01,2013-09-06 22:08:00,
2013-09-07 01:13:00,73.4,60.0,29.91,NNW,337,0.0,1.3,63,0.00,,---,0.00,VWS V13.01,2013-09-06 22:13:00,
2013-09-07 01:18:00,73.2,59.9,29.91,North,0,0.0,1.3,63,0.00,,---,0.00,VWS V13.01,2013-09-06 22:18:00,
2013-09-07 01:23:00,73.2,60.3,29.91,NNW,337,0.0,1.3,64,0.00,,---,0.00,VWS V13.01,2013-09-06 22:23:00,
2013-09-07 01:28:00,73.2,60.3,29.91,NW,315,0.0,1.3,64,0.00,,---,0.00,VWS V13.01,2013-09-06 22:28:00,
2013-09-07 01:33:00,73.2,60.3,29.91,NE,45,0.0,1.3,64,0.00,,---,0.00,VWS V13.01,2013-09-06 22:33:00,
2013-09-07 01:38:00,73.0,60.1,29.91,ESE,112,0.0,1.3,64,0.00,,---,0.00,VWS V13.01,2013-09-06 22:38:00,
2013-09-07 01:43:00,73.0,60.1,29.91,NE,45,0.0,1.3,64,0.00,,---,0.00,VWS V13.01,2013-09-06 22:43:00,
2013-09-07 01:48:00,73.0,59.7,29.91,NNE,22,0.0,1.3,63,0.00,,---,0.00,VWS V13.01,2013-09-06 22:48:00,
2013-09-07 01:53:00,72.9,60.0,29.91,NNW,337,0.0,1.3,64,0.00,,---,0.00,VWS V13.01,2013-09-06 22:53:00,
2013-09-07 01:58:00,72.9,60.0,29.91,NNW,337,0.0,1.3,64,0.00,,---,0.00,VWS V13.01,2013-09-06 22:58:00,
2013-09-07 02:03:00,72.7,59.8,29.91,North,0,0.0,1.3,64,0.00,,---,0.00,VWS V13.01,2013-09-06 23:03:00,
2013-09-07 02:08:00,72.7,59.8,29.91,NNE,22,0.0,1.3,64,0.00,,---,0.00,VWS V13.01,2013-09-06 23:08:00,
2013-09-07 02:13:00,72.5,59.6,29.91,North,0,0.0,1.3,64,0.00,,---,0.00,VWS V13.01,2013-09-06 23:13:00,
2013-09-07 02:18:00,72.5,59.6,29.91,NNE,22,0.0,1.1,64,0.00,,---,0.00,VWS V13.01,2013-09-06 23:18:00,
2013-09-07 02:23:00,72.3,59.5,29.91,NNE,22,1.1,1.6,64,0.00,,---,0.00,VWS V13.01,2013-09-06 23:23:00,
2013-09-07 02:28:00,72.3,59.5,29.91,NNW,337,0.0,1.6,64,0.00,,---,0.00,VWS V13.01,2013-09-06 23:28:00,
2013-09-07 02:33:00,72.3,59.5,29.91,NNW,337,0.0,1.6,64,0.00,,---,0.00,VWS V13.01,2013-09-06 23:33:00,
2013-09-07 02:38:00,72.3,59.5,29.92,NNW,337,0.0,1.6,64,0.00,,---,0.00,VWS V13.01,2013-09-06 23:38:00,
2013-09-07 02:43:00,72.1,59.3,29.91,North,0,0.0,1.6,64,0.00,,---,0.00,VWS V13.01,2013-09-06 23:43:00,
2013-09-07 02:48:00,72.1,59.3,29.91,NNW,337,0.0,1.6,64,0.00,,---,0.00,VWS V13.01,2013-09-06 23:48:00,
2013-09-07 02:53:00,72.1,59.7,29.90,North,0,0.9,2.2,65,0.00,,---,0.00,VWS V13.01,2013-09-06 23:53:00,
2013-09-07 02:58:00,72.1,59.7,29.91,North,0,0.9,1.6,65,0.00,,---,0.00,VWS V13.01,2013-09-06 23:58:00,
2013-09-07 03:03:00,72.0,59.6,29.91,North,0,0.0,1.1,65,0.00,,---,0.00,VWS V13.01,2013-09-07 00:03:00,
2013-09-07 03:08:00,72.0,59.6,29.91,NNW,337,0.0,2.9,65,0.00,,---,0.00,VWS V13.01,2013-09-07 00:08:00,
2013-09-07 03:13:00,72.0,59.6,29.91,North,0,0.0,2.9,65,0.00,,---,0.00,VWS V13.01,2013-09-07 00:13:00,
2013-09-07 03:18:00,71.8,59.4,29.91,North,0,0.0,1.6,65,0.00,,---,0.00,VWS V13.01,2013-09-07 00:18:00,
2013-09-07 03:23:00,71.8,59.4,29.91,North,0,2.5,2.5,65,0.00,,---,0.00,VWS V13.01,2013-09-07 00:23:00,
2013-09-07 03:28:00,71.8,59.4,29.91,NW,315,2.2,2.2,65,0.00,,---,0.00,VWS V13.01,2013-09-07 00:28:00,
2013-09-07 03:33:00,71.4,59.0,29.91,North,0,3.1,4.0,65,0.00,,---,0.00,VWS V13.01,2013-09-07 00:33:00,
2013-09-07 03:38:00,71.4,59.5,29.91,North,0,2.5,2.5,66,0.00,,---,0.00,VWS V13.01,2013-09-07 00:38:00,
2013-09-07 03:43:00,71.2,59.3,29.91,North,0,0.0,3.4,66,0.00,,---,0.00,VWS V13.01,2013-09-07 00:43:00,
2013-09-07 03:48:00,71.2,59.3,29.91,NNW,337,0.0,2.2,66,0.00,,---,0.00,VWS V13.01,2013-09-07 00:48:00,
2013-09-07 03:53:00,71.2,59.3,29.91,NNW,337,0.0,2.5,66,0.00,,---,0.00,VWS V13.01,2013-09-07 00:53:00,
2013-09-07 03:58:00,71.1,59.2,29.91,North,0,0.0,1.6,66,0.00,,---,0.00,VWS V13.01,2013-09-07 00:58:00,
2013-09-07 04:03:00,70.9,59.0,29.91,NNW,337,1.1,1.6,66,0.00,,---,0.00,VWS V13.01,2013-09-07 01:03:00,
2013-09-07 04:08:00,70.9,59.0,29.91,North,0,1.8,1.8,66,0.00,,---,0.00,VWS V13.01,2013-09-07 01:08:00,
2013-09-07 04:13:00,70.9,59.0,29.91,North,0,2.0,2.0,66,0.00,,---,0.00,VWS V13.01,2013-09-07 01:13:00,
2013-09-07 04:18:00,70.9,59.0,29.91,NNW,337,2.0,2.5,66,0.00,,---,0.00,VWS V13.01,2013-09-07 01:18:00,
2013-09-07 04:23:00,70.7,58.8,29.91,NE,45,0.0,2.2,66,0.00,,---,0.00,VWS V13.01,2013-09-07 01:23:00,
2013-09-07 04:28:00,70.7,58.8,29.91,North,0,0.0,2.9,66,0.00,,---,0.00,VWS V13.01,2013-09-07 01:28:00,
2013-09-07 04:33:00,70.5,58.6,29.91,North,0,0.0,2.7,66,0.00,,---,0.00,VWS V13.01,2013-09-07 01:33:00,
2013-09-07 04:38:00,70.5,58.6,29.91,NW,315,2.7,2.7,66,0.00,,---,0.00,VWS V13.01,2013-09-07 01:38:00,
2013-09-07 04:43:00,70.5,58.6,29.91,NNW,337,0.0,1.1,66,0.00,,---,0.00,VWS V13.01,2013-09-07 01:43:00,
2013-09-07 04:48:00,70.3,58.4,29.91,North,0,0.0,1.6,66,0.00,,---,0.00,VWS V13.01,2013-09-07 01:48:00,
2013-09-07 04:53:00,70.3,58.8,29.91,North,0,0.0,3.8,67,0.00,,---,0.00,VWS V13.01,2013-09-07 01:53:00,
2013-09-07 04:58:00,70.3,58.8,29.91,NNE,22,0.0,1.1,67,0.00,,---,0.00,VWS V13.01,2013-09-07 01:58:00,
2013-09-07 05:03:00,70.3,58.8,29.91,NNE,22,0.0,1.1,67,0.00,,---,0.00,VWS V13.01,2013-09-07 02:03:00,
2013-09-07 05:08:00,70.3,58.8,29.91,NNE,22,0.0,1.1,67,0.00,,---,0.00,VWS V13.01,2013-09-07 02:08:00,
2013-09-07 05:13:00,70.5,59.0,29.91,NNE,22,0.0,1.1,67,0.00,,---,0.00,VWS V13.01,2013-09-07 02:13:00,
2013-09-07 05:18:00,70.5,59.0,29.91,North,0,0.0,1.1,67,0.00,,---,0.00,VWS V13.01,2013-09-07 02:18:00,
2013-09-07 05:23:00,70.5,59.0,29.91,NNW,337,0.0,1.1,67,0.00,,---,0.00,VWS V13.01,2013-09-07 02:23:00,
2013-09-07 05:28:00,70.5,59.0,29.91,NW,315,0.0,1.3,67,0.00,,---,0.00,VWS V13.01,2013-09-07 02:28:00,
2013-09-07 05:33:00,70.5,59.0,29.91,North,0,0.0,0.9,67,0.00,,---,0.00,VWS V13.01,2013-09-07 02:33:00,
2013-09-07 05:38:00,70.3,58.8,29.91,North,0,0.0,1.8,67,0.00,,---,0.00,VWS V13.01,2013-09-07 02:38:00,
2013-09-07 05:43:00,70.3,58.8,29.91,NE,45,0.0,2.2,67,0.00,,---,0.00,VWS V13.01,2013-09-07 02:43:00,
2013-09-07 05:48:00,70.3,58.8,29.91,North,0,0.0,2.2,67,0.00,,---,0.00,VWS V13.01,2013-09-07 02:48:00,
2013-09-07 05:53:00,70.3,58.8,29.91,North,0,0.0,2.2,67,0.00,,---,0.00,VWS V13.01,2013-09-07 02:53:00,
2013-09-07 05:58:00,70.3,58.8,29.91,North,0,0.0,2.2,67,0.00,,---,0.00,VWS V13.01,2013-09-07 02:58:00,
2013-09-07 06:03:00,70.3,58.8,29.91,NNW,337,0.0,2.2,67,0.00,,---,0.00,VWS V13.01,2013-09-07 03:03:00,
2013-09-07 06:08:00,70.3,58.8,29.92,NNW,337,0.0,2.2,67,0.00,,---,0.00,VWS V13.01,2013-09-07 03:08:00,
2013-09-07 06:13:00,70.3,58.8,29.92,North,0,1.6,2.0,67,0.00,,---,0.00,VWS V13.01,2013-09-07 03:13:00,
2013-09-07 06:18:00,70.3,59.2,29.91,NNE,22,0.0,1.3,68,0.00,,---,0.00,VWS V13.01,2013-09-07 03:18:00,
2013-09-07 06:23:00,70.3,59.2,29.91,North,0,0.0,1.3,68,0.00,,---,0.00,VWS V13.01,2013-09-07 03:23:00,
2013-09-07 06:28:00,70.3,59.2,29.92,NNW,337,0.0,1.3,68,0.00,,---,0.00,VWS V13.01,2013-09-07 03:28:00,
2013-09-07 06:33:00,70.3,59.2,29.92,NNW,337,1.8,2.5,68,0.00,,---,0.00,VWS V13.01,2013-09-07 03:33:00,
2013-09-07 06:38:00,70.3,59.2,29.92,NNW,337,1.1,2.9,68,0.00,,---,0.00,VWS V13.01,2013-09-07 03:38:00,
2013-09-07 06:43:00,70.3,59.2,29.92,North,0,1.6,3.1,68,0.00,,---,0.00,VWS V13.01,2013-09-07 03:43:00,
2013-09-07 06:48:00,70.3,59.2,29.92,North,0,0.0,2.0,68,0.00,,---,0.00,VWS V13.01,2013-09-07 03:48:00,
2013-09-07 06:53:00,70.3,59.2,29.92,NNW,337,0.0,1.3,68,0.00,,---,0.00,VWS V13.01,2013-09-07 03:53:00,
2013-09-07 06:58:00,70.3,59.2,29.92,NW,315,1.6,1.8,68,0.00,,---,0.00,VWS V13.01,2013-09-07 03:58:00,
2013-09-07 07:01:00,70.3,59.2,29.93,NW,315,2.5,3.4,68,0.00,,---,0.00,VWS V13.01,2013-09-07 04:01:00,
2013-09-07 07:02:00,70.3,59.2,29.93,NNW,337,2.0,2.0,68,0.00,,---,0.00,VWS V13.01,2013-09-07 04:02:00,
2013-09-07 07:07:00,70.3,59.2,29.93,NNE,22,0.0,3.1,68,0.00,,---,0.00,VWS V13.01,2013-09-07 04:07:00,
2013-09-07 07:12:00,70.3,59.2,29.93,NNE,22,0.0,1.3,68,0.00,,---,0.00,VWS V13.01,2013-09-07 04:12:00,
2013-09-07 07:17:00,70.3,59.2,29.93,North,0,2.2,3.1,68,0.00,,---,0.00,VWS V13.01,2013-09-07 04:17:00,
2013-09-07 07:22:00,70.3,59.2,29.93,NW,315,0.0,2.2,68,0.00,,---,0.00,VWS V13.01,2013-09-07 04:22:00,
2013-09-07 07:27:00,70.3,59.7,29.93,ENE,67,0.0,3.1,69,0.00,,---,0.00,VWS V13.01,2013-09-07 04:27:00,
2013-09-07 07:32:00,70.5,59.8,29.93,NE,45,0.0,3.1,69,0.00,,---,0.00,VWS V13.01,2013-09-07 04:32:00,
2013-09-07 07:37:00,70.5,59.8,29.93,NNE,22,0.0,3.1,69,0.00,,---,0.00,VWS V13.01,2013-09-07 04:37:00,
2013-09-07 07:42:00,70.5,59.8,29.93,North,0,0.0,3.1,69,0.00,,---,0.00,VWS V13.01,2013-09-07 04:42:00,
2013-09-07 07:47:00,70.7,60.0,29.93,NNW,337,0.0,3.1,69,0.00,,---,0.00,VWS V13.01,2013-09-07 04:47:00,
2013-09-07 07:52:00,70.9,60.6,29.93,NNW,337,0.0,3.1,70,0.00,,---,0.00,VWS V13.01,2013-09-07 04:52:00,
2013-09-07 07:57:00,70.9,60.6,29.93,WNW,292,0.0,3.1,70,0.00,,---,0.00,VWS V13.01,2013-09-07 04:57:00,
2013-09-07 08:02:00,70.9,60.2,29.93,NNW,337,0.0,1.3,69,0.00,,---,0.00,VWS V13.01,2013-09-07 05:02:00,
2013-09-07 08:07:00,71.1,60.4,29.93,North,0,2.0,2.0,69,0.00,,---,0.00,VWS V13.01,2013-09-07 05:07:00,
2013-09-07 08:12:00,71.2,60.5,29.93,NNW,337,0.0,0.7,69,0.00,,---,0.00,VWS V13.01,2013-09-07 05:12:00,
2013-09-07 08:17:00,71.2,60.5,29.93,NNW,337,0.0,2.0,69,0.00,,---,0.00,VWS V13.01,2013-09-07 05:17:00,
2013-09-07 08:22:00,71.4,60.7,29.93,North,0,0.0,0.9,69,0.00,,---,0.00,VWS V13.01,2013-09-07 05:22:00,
2013-09-07 08:27:00,71.4,60.3,29.93,NNW,337,0.0,1.6,68,0.00,,---,0.00,VWS V13.01,2013-09-07 05:27:00,
2013-09-07 08:32:00,71.6,60.5,29.93,North,0,2.9,3.1,68,0.00,,---,0.00,VWS V13.01,2013-09-07 05:32:00,
2013-09-07 08:37:00,71.8,60.7,29.93,NNE,22,0.0,2.0,68,0.00,,---,0.00,VWS V13.01,2013-09-07 05:37:00,
2013-09-07 08:42:00,72.0,60.9,29.93,North,0,0.0,2.0,68,0.00,,---,0.00,VWS V13.01,2013-09-07 05:42:00,
2013-09-07 08:47:00,72.3,61.2,29.93,North,0,2.0,4.5,68,0.00,,---,0.00,VWS V13.01,2013-09-07 05:47:00,
2013-09-07 08:52:00,72.5,61.3,29.93,North,0,0.0,1.3,68,0.00,,---,0.00,VWS V13.01,2013-09-07 05:52:00,
2013-09-07 08:57:00,72.7,61.5,29.93,NNW,337,0.0,2.0,68,0.00,,---,0.00,VWS V13.01,2013-09-07 05:57:00,
2013-09-07 09:02:00,73.0,61.4,29.93,NE,45,0.0,2.0,67,0.00,,---,0.00,VWS V13.01,2013-09-07 06:02:00,
2013-09-07 09:07:00,73.2,61.6,29.93,SE,135,0.0,2.0,67,0.00,,---,0.00,VWS V13.01,2013-09-07 06:07:00,
2013-09-07 09:12:00,73.8,62.2,29.94,NNW,337,0.0,2.0,67,0.00,,---,0.00,VWS V13.01,2013-09-07 06:12:00,
2013-09-07 09:17:00,74.1,62.5,29.95,SSW,202,1.3,2.0,67,0.00,,---,0.00,VWS V13.01,2013-09-07 06:17:00,
2013-09-07 09:22:00,74.5,62.4,29.94,SSW,202,0.0,1.3,66,0.00,,---,0.00,VWS V13.01,2013-09-07 06:22:00,
2013-09-07 09:27:00,74.8,62.7,29.95,East,90,0.0,1.6,66,0.00,,---,0.00,VWS V13.01,2013-09-07 06:27:00,
2013-09-07 09:32:00,75.4,62.4,29.95,ENE,67,0.0,1.6,64,0.00,,---,0.00,VWS V13.01,2013-09-07 06:32:00,
2013-09-07 09:37:00,75.7,62.2,29.95,ESE,112,0.0,1.6,63,0.00,,---,0.00,VWS V13.01,2013-09-07 06:37:00,
2013-09-07 09:42:00,76.1,62.2,29.95,NW,315,0.0,1.6,62,0.00,,---,0.00,VWS V13.01,2013-09-07 06:42:00,
2013-09-07 09:47:00,76.5,62.1,29.95,NNW,337,0.0,1.6,61,0.00,,---,0.00,VWS V13.01,2013-09-07 06:47:00,
2013-09-07 09:52:00,76.8,61.9,29.95,NE,45,2.0,2.0,60,0.00,,---,0.00,VWS V13.01,2013-09-07 06:52:00,
2013-09-07 09:57:00,77.5,60.6,29.95,NW,315,0.0,2.0,56,0.00,,---,0.00,VWS V13.01,2013-09-07 06:57:00,
2013-09-07 10:02:00,78.4,60.9,29.96,WNW,292,0.0,1.3,55,0.00,,---,0.00,VWS V13.01,2013-09-07 07:02:00,
2013-09-07 10:07:00,78.6,61.1,29.96,SSW,202,0.0,1.3,55,0.00,,---,0.00,VWS V13.01,2013-09-07 07:07:00,
2013-09-07 10:12:00,79.3,61.8,29.96,SSW,202,1.3,3.1,55,0.00,,---,0.00,VWS V13.01,2013-09-07 07:12:00,
2013-09-07 10:17:00,79.5,61.9,29.96,SW,225,3.1,6.3,55,0.00,,---,0.00,VWS V13.01,2013-09-07 07:17:00,
2013-09-07 10:22:00,79.9,61.8,29.96,SSE,157,1.1,2.9,54,0.00,,---,0.00,VWS V13.01,2013-09-07 07:22:00,
2013-09-07 10:27:00,79.7,62.1,29.96,South,180,0.7,0.7,55,0.00,,---,0.00,VWS V13.01,2013-09-07 07:27:00,
2013-09-07 10:32:00,79.9,61.8,29.97,SSE,157,1.3,1.6,54,0.00,,---,0.00,VWS V13.01,2013-09-07 07:32:00,
2013-09-07 10:37:00,79.7,62.1,29.97,SE,135,1.8,3.6,55,0.00,,---,0.00,VWS V13.01,2013-09-07 07:37:00,
2013-09-07 10:42:00,79.5,61.9,29.97,South,180,2.2,2.2,55,0.00,,---,0.00,VWS V13.01,2013-09-07 07:42:00,
2013-09-07 10:47:00,79.5,63.0,29.97,SSE,157,2.2,3.8,57,0.00,,---,0.00,VWS V13.01,2013-09-07 07:47:00,
2013-09-07 10:52:00,79.2,63.2,29.97,SSW,202,3.6,3.6,58,0.00,,---,0.00,VWS V13.01,2013-09-07 07:52:00,
2013-09-07 10:57:00,79.0,63.5,29.97,SSE,157,0.0,5.4,59,0.00,,---,0.00,VWS V13.01,2013-09-07 07:57:00,
2013-09-07 11:02:00,78.8,63.3,29.97,SE,135,0.0,1.8,59,0.00,,---,0.00,VWS V13.01,2013-09-07 08:02:00,
2013-09-07 11:07:00,79.0,63.0,29.97,SSE,157,1.8,4.3,58,0.00,,---,0.00,VWS V13.01,2013-09-07 08:07:00,
2013-09-07 11:12:00,79.0,63.0,29.98,South,180,0.0,1.3,58,0.00,,---,0.00,VWS V13.01,2013-09-07 08:12:00,
2013-09-07 11:17:00,79.0,62.5,29.98,SSW,202,0.0,3.6,57,0.00,,---,0.00,VWS V13.01,2013-09-07 08:17:00,
2013-09-07 11:22:00,79.0,62.0,29.98,SW,225,1.6,1.6,56,0.00,,---,0.00,VWS V13.01,2013-09-07 08:22:00,
2013-09-07 11:27:00,79.0,62.0,29.98,SW,225,0.0,2.0,56,0.00,,---,0.00,VWS V13.01,2013-09-07 08:27:00,
2013-09-07 11:32:00,79.2,62.2,29.98,SSE,157,0.0,2.0,56,0.00,,---,0.00,VWS V13.01,2013-09-07 08:32:00,
2013-09-07 11:37:00,79.3,62.3,29.98,SE,135,0.0,2.0,56,0.00,,---,0.00,VWS V13.01,2013-09-07 08:37:00,
2013-09-07 11:42:00,79.5,62.5,29.98,SE,135,0.0,1.6,56,0.00,,---,0.00,VWS V13.01,2013-09-07 08:42:00,
2013-09-07 11:47:00,79.7,62.6,29.98,SSE,157,0.0,0.9,56,0.00,,---,0.00,VWS V13.01,2013-09-07 08:47:00,
2013-09-07 11:52:00,80.1,63.0,29.98,WNW,292,0.0,1.6,56,0.00,,---,0.00,VWS V13.01,2013-09-07 08:52:00,
2013-09-07 11:57:00,79.7,62.6,29.98,SSE,157,0.0,1.6,56,0.00,,---,0.00,VWS V13.01,2013-09-07 08:57:00,
2013-09-07 12:02:00,79.9,62.8,29.98,SSE,157,0.0,1.6,56,0.00,,---,0.00,VWS V13.01,2013-09-07 09:02:00,
2013-09-07 12:07:00,80.2,62.6,29.98,WNW,292,0.0,0.7,55,0.00,,---,0.00,VWS V13.01,2013-09-07 09:07:00,
2013-09-07 12:12:00,80.4,62.2,29.98,North,0,0.0,0.7,54,0.00,,---,0.00,VWS V13.01,2013-09-07 09:12:00,
2013-09-07 12:17:00,80.8,63.1,29.98,SW,225,0.0,0.9,55,0.00,,---,0.00,VWS V13.01,2013-09-07 09:17:00,
2013-09-07 12:22:00,80.8,62.6,29.98,SE,135,0.0,0.9,54,0.00,,---,0.00,VWS V13.01,2013-09-07 09:22:00,
2013-09-07 12:27:00,81.1,62.4,29.98,WSW,247,0.0,0.9,53,0.00,,---,0.00,VWS V13.01,2013-09-07 09:27:00,
2013-09-07 12:32:00,80.6,61.9,29.98,WSW,247,0.0,1.3,53,0.00,,---,0.00,VWS V13.01,2013-09-07 09:32:00,
2013-09-07 12:37:00,80.8,62.6,29.98,WSW,247,0.0,1.3,54,0.00,,---,0.00,VWS V13.01,2013-09-07 09:37:00,
2013-09-07 12:42:00,80.8,62.1,29.98,NNW,337,0.0,1.3,53,0.00,,---,0.00,VWS V13.01,2013-09-07 09:42:00,
2013-09-07 12:47:00,80.8,63.1,29.98,WNW,292,0.0,1.3,55,0.00,,---,0.00,VWS V13.01,2013-09-07 09:47:00,
2013-09-07 12:52:00,80.4,62.8,29.98,NNW,337,0.0,1.3,55,0.00,,---,0.00,VWS V13.01,2013-09-07 09:52:00,
2013-09-07 12:57:00,80.1,62.0,29.98,NNW,337,1.1,1.8,54,0.00,,---,0.00,VWS V13.01,2013-09-07 09:57:00,
2013-09-07 13:02:00,79.9,62.3,29.98,WNW,292,0.0,2.0,55,0.00,,---,0.00,VWS V13.01,2013-09-07 10:02:00,
2013-09-07 13:07:00,80.1,62.0,29.98,WNW,292,0.0,2.0,54,0.00,,---,0.00,VWS V13.01,2013-09-07 10:07:00,
2013-09-07 13:12:00,80.4,62.8,29.98,ENE,67,0.0,2.7,55,0.00,,---,0.00,VWS V13.01,2013-09-07 10:12:00,
2013-09-07 13:17:00,80.8,63.1,29.97,NNW,337,0.0,1.8,55,0.00,,---,0.00,VWS V13.01,2013-09-07 10:17:00,
2013-09-07 13:22:00,80.4,62.8,29.97,ENE,67,0.0,1.8,55,0.00,,---,0.00,VWS V13.01,2013-09-07 10:22:00,
2013-09-07 13:27:00,81.1,63.4,29.97,North,0,0.0,1.8,55,0.00,,---,0.00,VWS V13.01,2013-09-07 10:27:00,
2013-09-07 13:32:00,80.8,62.6,29.97,WNW,292,0.0,1.1,54,0.00,,---,0.00,VWS V13.01,2013-09-07 10:32:00,
2013-09-07 13:37:00,81.1,62.9,29.97,SSE,157,0.0,1.1,54,0.00,,---,0.00,VWS V13.01,2013-09-07 10:37:00,
2013-09-07 13:42:00,82.0,62.7,29.97,SE,135,0.0,1.1,52,0.00,,---,0.00,VWS V13.01,2013-09-07 10:42:00,
2013-09-07 13:47:00,81.7,62.4,29.98,SW,225,0.0,1.1,52,0.00,,---,0.00,VWS V13.01,2013-09-07 10:47:00,
2013-09-07 13:52:00,82.0,62.7,29.97,NNW,337,0.0,1.1,52,0.00,,---,0.00,VWS V13.01,2013-09-07 10:52:00,
2013-09-07 13:57:00,81.5,61.7,29.97,North,0,0.0,2.0,51,0.00,,---,0.00,VWS V13.01,2013-09-07 10:57:00,
2013-09-07 14:02:00,81.1,61.3,29.97,NNW,337,2.2,2.2,51,0.00,,---,0.00,VWS V13.01,2013-09-07 11:02:00,
2013-09-07 14:07:00,81.1,61.8,29.97,North,0,3.1,4.7,52,0.00,,---,0.00,VWS V13.01,2013-09-07 11:07:00,
2013-09-07 14:12:00,80.8,61.5,29.97,NNW,337,0.0,2.0,52,0.00,,---,0.00,VWS V13.01,2013-09-07 11:12:00,
2013-09-07 14:17:00,80.8,62.1,29.97,SW,225,0.0,3.4,53,0.00,,---,0.00,VWS V13.01,2013-09-07 11:17:00,
2013-09-07 14:22:00,81.0,61.7,29.97,NNW,337,1.6,1.6,52,0.00,,---,0.00,VWS V13.01,2013-09-07 11:22:00,
2013-09-07 14:27:00,80.8,61.5,29.97,NW,315,0.0,1.6,52,0.00,,---,0.00,VWS V13.01,2013-09-07 11:27:00,
2013-09-07 14:32:00,80.8,61.5,29.97,NW,315,0.0,1.6,52,0.00,,---,0.00,VWS V13.01,2013-09-07 11:32:00,
2013-09-07 14:37:00,80.8,61.0,29.96,NE,45,0.0,1.3,51,0.00,,---,0.00,VWS V13.01,2013-09-07 11:37:00,
2013-09-07 14:42:00,81.1,61.3,29.96,ESE,112,0.0,1.1,51,0.00,,---,0.00,VWS V13.01,2013-09-07 11:42:00,
2013-09-07 14:47:00,81.3,62.0,29.96,ESE,112,0.0,1.1,52,0.00,,---,0.00,VWS V13.01,2013-09-07 11:47:00,
2013-09-07 14:52:00,81.7,61.8,29.96,ESE,112,0.0,1.1,51,0.00,,---,0.00,VWS V13.01,2013-09-07 11:52:00,
2013-09-07 14:57:00,81.9,61.5,29.96,SSE,157,0.0,1.1,50,0.00,,---,0.00,VWS V13.01,2013-09-07 11:57:00,
2013-09-07 15:02:00,82.0,61.5,29.96,WNW,292,0.0,1.1,50,0.00,,---,0.00,VWS V13.01,2013-09-07 12:02:00,
2013-09-07 15:07:00,81.9,62.6,29.96,SW,225,0.0,1.6,52,0.00,,---,0.00,VWS V13.01,2013-09-07 12:07:00,
2013-09-07 15:12:00,82.2,64.4,29.96,South,180,0.0,1.8,55,0.00,,---,0.00,VWS V13.01,2013-09-07 12:12:00,
2013-09-07 15:17:00,82.0,64.3,29.96,SE,135,0.0,2.0,55,0.00,,---,0.00,VWS V13.01,2013-09-07 12:17:00,
2013-09-07 15:22:00,82.0,64.3,29.96,WSW,247,0.0,1.8,55,0.00,,---,0.00,VWS V13.01,2013-09-07 12:22:00,
2013-09-07 15:27:00,82.2,64.4,29.96,SSE,157,0.0,2.2,55,0.00,,---,0.00,VWS V13.01,2013-09-07 12:27:00,
2013-09-07 15:32:00,82.6,64.3,29.95,SSE,157,1.3,1.3,54,0.00,,---,0.00,VWS V13.01,2013-09-07 12:32:00,
2013-09-07 15:37:00,82.6,64.3,29.96,WNW,292,0.0,0.7,54,0.00,,---,0.00,VWS V13.01,2013-09-07 12:37:00,
2013-09-07 15:42:00,82.6,64.3,29.96,SSW,202,0.0,2.0,54,0.00,,---,0.00,VWS V13.01,2013-09-07 12:42:00,
2013-09-07 15:47:00,82.9,63.5,29.96,SSE,157,0.0,1.3,52,0.00,,---,0.00,VWS V13.01,2013-09-07 12:47:00,
2013-09-07 15:52:00,83.1,63.7,29.96,South,180,0.0,1.6,52,0.00,,---,0.00,VWS V13.01,2013-09-07 12:52:00,
2013-09-07 15:57:00,83.3,62.2,29.95,West,270,0.0,1.6,49,0.00,,---,0.00,VWS V13.01,2013-09-07 12:57:00,
2013-09-07 16:02:00,83.8,63.2,29.95,South,180,0.0,1.1,50,0.00,,---,0.00,VWS V13.01,2013-09-07 13:02:00,
2013-09-07 16:07:00,84.4,62.6,29.95,NNW,337,0.0,1.3,48,0.00,,---,0.00,VWS V13.01,2013-09-07 13:07:00,
2013-09-07 16:12:00,84.4,62.6,29.95,SSE,157,0.0,0.9,48,0.00,,---,0.00,VWS V13.01,2013-09-07 13:12:00,
2013-09-07 16:17:00,84.2,62.4,29.96,SE,135,0.0,1.1,48,0.00,,---,0.00,VWS V13.01,2013-09-07 13:17:00,
2013-09-07 16:22:00,84.0,60.4,29.96,North,0,0.0,1.1,45,0.00,,---,0.00,VWS V13.01,2013-09-07 13:22:00,
2013-09-07 16:27:00,83.8,61.4,29.96,ESE,112,0.0,1.1,47,0.00,,---,0.00,VWS V13.01,2013-09-07 13:27:00,
2013-09-07 16:32:00,83.5,61.8,29.96,ENE,67,0.0,2.0,48,0.00,,---,0.00,VWS V13.01,2013-09-07 13:32:00,
2013-09-07 16:38:00,83.3,61.6,29.96,ESE,112,0.0,2.0,48,0.00,,---,0.00,VWS V13.01,2013-09-07 13:38:00,
2013-09-07 16:43:00,83.1,61.4,29.96,NNW,337,0.0,2.0,48,0.00,,---,0.00,VWS V13.01,2013-09-07 13:43:00,
2013-09-07 16:48:00,83.1,61.4,29.96,ESE,112,0.0,2.0,48,0.00,,---,0.00,VWS V13.01,2013-09-07 13:48:00,
2013-09-07 16:53:00,83.1,61.4,29.96,SE,135,0.0,2.0,48,0.00,,---,0.00,VWS V13.01,2013-09-07 13:53:00,
2013-09-07 16:58:00,83.3,62.7,29.95,SSW,202,3.6,3.6,50,0.00,,---,0.00,VWS V13.01,2013-09-07 13:58:00,
2013-09-07 17:03:00,82.9,64.0,29.96,West,270,0.9,6.0,53,0.00,,---,0.00,VWS V13.01,2013-09-07 14:03:00,
2013-09-07 17:08:00,82.4,65.1,29.96,SW,225,4.0,7.6,56,0.00,,---,0.00,VWS V13.01,2013-09-07 14:08:00,
2013-09-07 17:13:00,82.0,65.3,29.96,SSE,157,4.5,5.1,57,0.00,,---,0.00,VWS V13.01,2013-09-07 14:13:00,
2013-09-07 17:18:00,81.7,65.0,29.96,South,180,4.5,4.5,57,0.00,,---,0.00,VWS V13.01,2013-09-07 14:18:00,
2013-09-07 17:23:00,81.5,65.3,29.95,SSE,157,0.0,5.1,58,0.00,,---,0.00,VWS V13.01,2013-09-07 14:23:00,
2013-09-07 17:28:00,81.5,65.3,29.96,SSE,157,0.0,2.2,58,0.00,,---,0.00,VWS V13.01,2013-09-07 14:28:00,
2013-09-07 17:33:00,81.7,65.5,29.95,SE,135,0.0,2.9,58,0.00,,---,0.00,VWS V13.01,2013-09-07 14:33:00,
2013-09-07 17:38:00,81.7,65.0,29.95,South,180,2.0,2.0,57,0.00,,---,0.00,VWS V13.01,2013-09-07 14:38:00,
2013-09-07 17:43:00,81.7,65.0,29.96,SSW,202,2.5,3.6,57,0.00,,---,0.00,VWS V13.01,2013-09-07 14:43:00,
2013-09-07 17:48:00,81.5,64.8,29.95,SSE,157,0.0,3.8,57,0.00,,---,0.00,VWS V13.01,2013-09-07 14:48:00,
2013-09-07 17:53:00,81.7,65.0,29.95,SE,135,3.6,3.8,57,0.00,,---,0.00,VWS V13.01,2013-09-07 14:53:00,
2013-09-07 17:58:00,81.5,64.8,29.96,SSW,202,0.0,3.1,57,0.00,,---,0.00,VWS V13.01,2013-09-07 14:58:00,
2013-09-07 18:03:00,81.5,64.3,29.96,South,180,1.3,2.2,56,0.00,,---,0.00,VWS V13.01,2013-09-07 15:03:00,
2013-09-07 18:08:00,81.5,64.3,29.95,SSW,202,0.0,3.6,56,0.00,,---,0.00,VWS V13.01,2013-09-07 15:08:00,
2013-09-07 18:13:00,81.5,64.3,29.96,SSW,202,1.8,5.1,56,0.00,,---,0.00,VWS V13.01,2013-09-07 15:13:00,
2013-09-07 18:18:00,81.5,64.8,29.95,SSE,157,1.8,3.1,57,0.00,,---,0.00,VWS V13.01,2013-09-07 15:18:00,
2013-09-07 18:23:00,81.3,64.1,29.95,SSW,202,3.4,6.0,56,0.00,,---,0.00,VWS V13.01,2013-09-07 15:23:00,
2013-09-07 18:28:00,81.3,64.6,29.96,NW,315,0.0,4.5,57,0.00,,---,0.00,VWS V13.01,2013-09-07 15:28:00,
2013-09-07 18:33:00,81.3,64.1,29.95,SSE,157,0.0,2.9,56,0.00,,---,0.00,VWS V13.01,2013-09-07 15:33:00,
2013-09-07 18:38:00,81.0,63.8,29.96,SSW,202,1.1,1.1,56,0.00,,---,0.00,VWS V13.01,2013-09-07 15:38:00,
2013-09-07 18:43:00,81.0,63.8,29.95,SSW,202,2.7,4.0,56,0.00,,---,0.00,VWS V13.01,2013-09-07 15:43:00,
2013-09-07 18:48:00,80.8,64.2,29.95,SSW,202,0.0,3.6,57,0.00,,---,0.00,VWS V13.01,2013-09-07 15:48:00,
2013-09-07 18:53:00,80.6,64.0,29.95,South,180,0.0,2.2,57,0.00,,---,0.00,VWS V13.01,2013-09-07 15:53:00,
2013-09-07 18:58:00,80.4,63.8,29.95,South,180,0.0,2.2,57,0.00,,---,0.00,VWS V13.01,2013-09-07 15:58:00,
2013-09-07 19:03:00,80.4,63.8,29.95,West,270,0.0,2.2,57,0.00,,---,0.00,VWS V13.01,2013-09-07 16:03:00,
2013-09-07 19:08:00,80.4,63.8,29.96,SSW,202,0.0,4.0,57,0.00,,---,0.00,VWS V13.01,2013-09-07 16:08:00,
2013-09-07 19:13:00,80.4,63.8,29.95,SE,135,0.0,1.6,57,0.00,,---,0.00,VWS V13.01,2013-09-07 16:13:00,
2013-09-07 19:18:00,80.4,63.8,29.95,SE,135,0.0,3.1,57,0.00,,---,0.00,VWS V13.01,2013-09-07 16:18:00,
2013-09-07 19:23:00,80.2,63.6,29.96,SSW,202,0.0,1.1,57,0.00,,---,0.00,VWS V13.01,2013-09-07 16:23:00,
2013-09-07 19:28:00,80.2,63.6,29.95,South,180,0.0,1.1,57,0.00,,---,0.00,VWS V13.01,2013-09-07 16:28:00,
2013-09-07 19:33:00,80.2,63.6,29.96,SSE,157,0.0,1.1,57,0.00,,---,0.00,VWS V13.01,2013-09-07 16:33:00,
2013-09-07 19:38:00,80.1,63.5,29.95,SSW,202,0.0,1.3,57,0.00,,---,0.00,VWS V13.01,2013-09-07 16:38:00,
2013-09-07 19:43:00,79.9,63.3,29.95,West,270,0.0,1.3,57,0.00,,---,0.00,VWS V13.01,2013-09-07 16:43:00,
2013-09-07 19:48:00,79.7,63.6,29.95,West,270,0.0,1.3,58,0.00,,---,0.00,VWS V13.01,2013-09-07 16:48:00,
2013-09-07 19:53:00,79.5,63.0,29.95,NNW,337,4.0,4.0,57,0.00,,---,0.00,VWS V13.01,2013-09-07 16:53:00,
2013-09-07 19:58:00,79.3,61.8,29.96,North,0,0.0,4.0,55,0.00,,---,0.00,VWS V13.01,2013-09-07 16:58:00,
2013-09-07 20:03:00,79.0,60.4,29.96,NNW,337,0.0,4.0,53,0.00,,---,0.00,VWS V13.01,2013-09-07 17:03:00,
2013-09-07 20:08:00,78.8,59.7,29.96,NNW,337,0.0,1.3,52,0.00,,---,0.00,VWS V13.01,2013-09-07 17:08:00,
2013-09-07 20:13:00,78.6,59.0,29.96,NNW,337,0.0,2.5,51,0.00,,---,0.00,VWS V13.01,2013-09-07 17:13:00,
2013-09-07 20:18:00,78.4,58.8,29.96,NW,315,1.8,2.9,51,0.00,,---,0.00,VWS V13.01,2013-09-07 17:18:00,
2013-09-07 20:23:00,78.4,58.2,29.96,NNW,337,5.1,5.1,50,0.00,,---,0.00,VWS V13.01,2013-09-07 17:23:00,
2013-09-07 20:28:00,78.1,58.0,29.96,NNW,337,4.7,6.7,50,0.00,,---,0.00,VWS V13.01,2013-09-07 17:28:00,
2013-09-07 20:33:00,77.9,57.8,29.96,NNW,337,4.0,4.0,50,0.00,,---,0.00,VWS V13.01,2013-09-07 17:33:00,
2013-09-07 20:38:00,77.7,57.6,29.96,NNW,337,2.9,3.4,50,0.00,,---,0.00,VWS V13.01,2013-09-07 17:38:00,
2013-09-07 20:43:00,77.5,58.0,29.96,WNW,292,0.0,3.4,51,0.00,,---,0.00,VWS V13.01,2013-09-07 17:43:00,
2013-09-07 20:48:00,77.2,57.7,29.97,NNE,22,2.2,3.8,51,0.00,,---,0.00,VWS V13.01,2013-09-07 17:48:00,
2013-09-07 20:53:00,77.0,57.5,29.96,NNW,337,0.0,1.8,51,0.00,,---,0.00,VWS V13.01,2013-09-07 17:53:00,
2013-09-07 20:58:00,76.8,57.9,29.97,NNW,337,0.0,1.1,52,0.00,,---,0.00,VWS V13.01,2013-09-07 17:58:00,
2013-09-07 21:03:00,76.6,57.7,29.97,NNW,337,0.7,1.3,52,0.00,,---,0.00,VWS V13.01,2013-09-07 18:03:00,
2013-09-07 21:08:00,76.5,57.6,29.97,NNE,22,1.3,2.0,52,0.00,,---,0.00,VWS V13.01,2013-09-07 18:08:00,
2013-09-07 21:13:00,76.1,57.8,29.97,North,0,1.3,3.6,53,0.00,,---,0.00,VWS V13.01,2013-09-07 18:13:00,
2013-09-07 21:18:00,75.9,57.6,29.97,NNW,337,2.0,2.9,53,0.00,,---,0.00,VWS V13.01,2013-09-07 18:18:00,
2013-09-07 21:23:00,75.9,57.6,29.97,NNW,337,0.0,3.6,53,0.00,,---,0.00,VWS V13.01,2013-09-07 18:23:00,
2013-09-07 21:28:00,75.7,57.9,29.97,North,0,0.0,2.7,54,0.00,,---,0.00,VWS V13.01,2013-09-07 18:28:00,
2013-09-07 21:33:00,75.6,57.3,29.98,NW,315,0.0,1.3,53,0.00,,---,0.00,VWS V13.01,2013-09-07 18:33:00,
2013-09-07 21:38:00,75.4,57.6,29.98,NE,45,0.0,1.6,54,0.00,,---,0.00,VWS V13.01,2013-09-07 18:38:00,
2013-09-07 21:43:00,75.4,57.6,29.98,North,0,0.0,1.6,54,0.00,,---,0.00,VWS V13.01,2013-09-07 18:43:00,
2013-09-07 21:48:00,75.0,57.2,29.98,NNW,337,0.0,1.6,54,0.00,,---,0.00,VWS V13.01,2013-09-07 18:48:00,
2013-09-07 21:53:00,75.0,57.2,29.98,NW,315,1.6,2.7,54,0.00,,---,0.00,VWS V13.01,2013-09-07 18:53:00,
2013-09-07 21:58:00,74.8,57.6,29.98,NNW,337,3.4,3.8,55,0.00,,---,0.00,VWS V13.01,2013-09-07 18:58:00,
2013-09-07 22:03:00,74.8,57.6,29.98,North,0,1.8,5.1,55,0.00,,---,0.00,VWS V13.01,2013-09-07 19:03:00,
2013-09-07 22:08:00,74.5,57.3,29.98,NNW,337,2.0,2.2,55,0.00,,---,0.00,VWS V13.01,2013-09-07 19:08:00,
2013-09-07 22:13:00,74.5,57.8,29.98,NW,315,0.0,2.9,56,0.00,,---,0.00,VWS V13.01,2013-09-07 19:13:00,
2013-09-07 22:18:00,74.3,57.6,29.98,North,0,0.0,4.3,56,0.00,,---,0.00,VWS V13.01,2013-09-07 19:18:00,
2013-09-07 22:23:00,74.1,57.4,29.98,NNW,337,1.3,4.0,56,0.00,,---,0.00,VWS V13.01,2013-09-07 19:23:00,
2013-09-07 22:28:00,73.9,57.2,29.98,NW,315,1.1,3.1,56,0.00,,---,0.00,VWS V13.01,2013-09-07 19:28:00,
2013-09-07 22:33:00,73.9,57.7,29.98,NNE,22,0.0,1.6,57,0.00,,---,0.00,VWS V13.01,2013-09-07 19:33:00,
2013-09-07 22:39:00,73.8,57.6,29.98,NNW,337,0.7,0.7,57,0.00,,---,0.00,VWS V13.01,2013-09-07 19:39:00,
2013-09-07 22:44:00,73.6,57.4,29.98,NNW,337,0.0,2.7,57,0.00,,---,0.00,VWS V13.01,2013-09-07 19:44:00,
2013-09-07 22:49:00,73.4,57.3,29.98,NNW,337,1.8,2.2,57,0.00,,---,0.00,VWS V13.01,2013-09-07 19:49:00,
2013-09-07 22:54:00,73.2,57.5,29.98,NNW,337,1.8,3.1,58,0.00,,---,0.00,VWS V13.01,2013-09-07 19:54:00,
2013-09-07 22:59:00,73.2,57.5,29.99,North,0,0.0,2.5,58,0.00,,---,0.00,VWS V13.01,2013-09-07 19:59:00,
2013-09-07 23:04:00,73.0,57.4,29.98,North,0,0.0,3.6,58,0.00,,---,0.00,VWS V13.01,2013-09-07 20:04:00,
2013-09-07 23:09:00,72.9,57.3,29.98,NNW,337,2.9,3.1,58,0.00,,---,0.00,VWS V13.01,2013-09-07 20:09:00,
2013-09-07 23:14:00,72.7,57.6,29.99,North,0,0.0,3.8,59,0.00,,---,0.00,VWS V13.01,2013-09-07 20:14:00,
2013-09-07 23:19:00,72.5,57.4,29.98,NNE,22,0.0,2.5,59,0.00,,---,0.00,VWS V13.01,2013-09-07 20:19:00,
2013-09-07 23:24:00,72.3,57.2,29.98,North,0,0.0,2.5,59,0.00,,---,0.00,VWS V13.01,2013-09-07 20:24:00,
2013-09-07 23:29:00,72.3,57.2,29.99,NNW,337,4.0,4.0,59,0.00,,---,0.00,VWS V13.01,2013-09-07 20:29:00,
2013-09-07 23:34:00,72.1,57.0,29.99,NW,315,3.4,3.4,59,0.00,,---,0.00,VWS V13.01,2013-09-07 20:34:00,
2013-09-07 23:39:00,72.0,57.4,29.99,NNW,337,2.2,3.4,60,0.00,,---,0.00,VWS V13.01,2013-09-07 20:39:00,
2013-09-07 23:44:00,71.8,57.2,29.99,North,0,2.0,2.0,60,0.00,,---,0.00,VWS V13.01,2013-09-07 20:44:00,
2013-09-07 23:49:00,71.6,57.0,29.99,NNW,337,3.1,3.8,60,0.00,,---,0.00,VWS V13.01,2013-09-07 20:49:00,
2013-09-07 23:54:00,71.4,56.8,29.99,North,0,1.6,1.6,60,0.00,,---,0.00,VWS V13.01,2013-09-07 20:54:00,
2013-09-07 23:59:00,71.4,56.8,29.99,North,0,2.9,5.6,60,0.00,,---,0.00,VWS V13.01,2013-09-07 20:59:00,